»·PEaware :: N23CW KWHP-KBFL

N23CW :: KWHP-KBFL

FLIGHT INFORMATION

Flight Status: Arrived
Operator: Privately registered:
United States
More flights under this callsign
Pilot: Alfonso U. (14209)
Aircraft: BEECH AIRCRAFT BARON
(BE58)
More flights by this aircraft type
Origin: KWHP Whiteman
United States
Destination: KBFL Meadows
United States
More flights between these airports :: More routes between these airports
Route: +VNY LHS FASTO2
File this flight plan on PilotEdge
Remarks:
Altitude:
(Current/Filed)
8,000ft
Speed:
(Current/Filed)
200kts
Departed: 25-Sep-17 11:02 AM
Arrived: 25-Sep-17 11:44 AM
Distance/Time
Traveled:
78nm/0:42
Distance/Time
To Go:
Arrived

Flight Plot

Page will automatically refresh every two minutes.

Flight plan parsing failed; only flown route is shown


Map Options




Map Legend


Flown Route
Filed Route
Departure Airport
Arrival Airport
Navaid (VOR, NDB)
Fix

Horizontal Profiles

Position Reports

Time Latitude Longitude Heading Altitude Ground
Speed
25-Sep-17 10:41 34.257354 -118.410475 0 976ft 0kts
25-Sep-17 10:42 34.257354 -118.410475 318 976ft 0kts
25-Sep-17 10:43 34.257354 -118.410475 318 976ft 0kts
25-Sep-17 10:44 34.257354 -118.410475 318 976ft 0kts
25-Sep-17 10:45 34.257354 -118.410475 318 976ft 0kts
25-Sep-17 10:46 34.257354 -118.410475 318 976ft 0kts
25-Sep-17 10:47 34.257354 -118.410475 318 976ft 0kts
25-Sep-17 10:48 34.257354 -118.410475 318 976ft 0kts
25-Sep-17 10:49 34.257354 -118.410475 318 976ft 0kts
25-Sep-17 10:50 34.257354 -118.410475 318 976ft 0kts
25-Sep-17 10:51 34.257354 -118.410475 318 976ft 0kts
25-Sep-17 10:52 34.257354 -118.410475 318 976ft 0kts
25-Sep-17 10:53 34.256590 -118.409939 138 972ft 16kts
25-Sep-17 10:54 34.255299 -118.409290 330 966ft 0kts
25-Sep-17 10:55 34.255501 -118.408891 167 967ft 0kts
25-Sep-17 10:56 34.255501 -118.408891 167 967ft 0kts
25-Sep-17 10:57 34.255501 -118.408891 167 967ft 0kts
25-Sep-17 10:58 34.255501 -118.408891 167 967ft 0kts
25-Sep-17 10:59 34.255501 -118.408891 167 967ft 0kts
25-Sep-17 11:00 34.255501 -118.408891 167 967ft 0kts
25-Sep-17 11:01 34.255501 -118.408891 167 967ft 0kts
25-Sep-17 11:02 34.255501 -118.408891 167 967ft 0kts
25-Sep-17 11:03 34.255501 -118.408891 167 967ft 0kts
25-Sep-17 11:04 34.255501 -118.408891 167 967ft 0kts
25-Sep-17 11:05 34.255501 -118.408891 167 967ft 0kts
25-Sep-17 11:06 34.256860 -118.410884 319 975ft 66kts
25-Sep-17 11:07 34.274970 -118.434091 312 2194ft 116kts
25-Sep-17 11:08 34.298954 -118.469218 317 3280ft 142kts
25-Sep-17 11:09 34.325485 -118.499570 320 4645ft 120kts
25-Sep-17 11:10 34.343287 -118.527928 264 4950ft 114kts
25-Sep-17 11:11 34.319420 -118.533548 153 5098ft 108kts
25-Sep-17 11:12 34.292486 -118.519889 153 5635ft 122kts
25-Sep-17 11:13 34.261608 -118.505450 158 6514ft 148kts
25-Sep-17 11:14 34.227476 -118.492401 162 7627ft 140kts
25-Sep-17 11:15 34.200156 -118.471824 83 8637ft 133kts
25-Sep-17 11:16 34.229312 -118.463993 344 9513ft 134kts
25-Sep-17 11:17 34.264129 -118.477232 344 10364ft 136kts
25-Sep-17 11:18 34.300034 -118.491073 344 11151ft 137kts
25-Sep-17 11:19 34.336740 -118.498497 357 11863ft 137kts
25-Sep-17 11:20 34.379865 -118.504423 353 10415ft 172kts
25-Sep-17 11:21 34.418889 -118.511124 357 9576ft 137kts
25-Sep-17 11:22 34.457143 -118.519917 350 10060ft 160kts
25-Sep-17 11:23 34.501563 -118.531300 350 10048ft 176kts
25-Sep-17 11:24 34.549420 -118.543336 350 10044ft 179kts
25-Sep-17 11:25 34.597629 -118.555617 350 10058ft 178kts
25-Sep-17 11:26 34.645453 -118.567493 350 10086ft 177kts
25-Sep-17 11:27 34.691954 -118.583631 321 10121ft 180kts
25-Sep-17 11:28 34.728728 -118.622788 323 10143ft 180kts
25-Sep-17 11:29 34.765826 -118.660257 322 10105ft 181kts
25-Sep-17 11:30 34.803736 -118.698760 322 10111ft 180kts
25-Sep-17 11:31 34.841093 -118.736530 322 10115ft 180kts
25-Sep-17 11:32 34.878949 -118.774778 323 10117ft 180kts
25-Sep-17 11:33 34.917044 -118.813287 323 10115ft 180kts
25-Sep-17 11:34 34.954965 -118.851677 323 10101ft 179kts
25-Sep-17 11:35 34.992886 -118.890106 323 10088ft 178kts
25-Sep-17 11:36 35.037885 -118.890671 22 10086ft 172kts
25-Sep-17 11:37 35.083876 -118.870571 12 9538ft 184kts
25-Sep-17 11:38 35.133509 -118.861413 7 8690ft 191kts
25-Sep-17 11:39 35.185974 -118.857742 0 7814ft 194kts
25-Sep-17 11:40 35.239389 -118.857300 0 6934ft 196kts
25-Sep-17 11:41 35.293763 -118.856802 0 6041ft 193kts
25-Sep-17 11:42 35.333242 -118.893278 303 4481ft 189kts
25-Sep-17 11:43 35.355994 -118.940210 297 2744ft 150kts
25-Sep-17 11:44 35.373968 -118.978043 303 1618ft 131kts
25-Sep-17 11:45 35.393912 -119.008560 313 911ft 108kts
25-Sep-17 11:46 35.413801 -119.031739 315 663ft 99kts
25-Sep-17 11:47 35.432327 -119.054384 314 501ft 83kts
25-Sep-17 11:48 35.438212 -119.059932 72 492ft 0kts
25-Sep-17 11:49 35.437707 -119.058621 138 493ft 16kts
25-Sep-17 11:50 35.436423 -119.054618 43 496ft 7kts
25-Sep-17 11:51 35.436729 -119.054260 43 498ft 0kts
25-Sep-17 11:52 35.436729 -119.054260 43 498ft 0kts
25-Sep-17 11:53 35.385163 -118.996754 311 1176ft 120kts
25-Sep-17 11:54 35.405720 -119.022535 318 658ft 100kts
25-Sep-17 11:55 35.425688 -119.046447 315 553ft 98kts
25-Sep-17 11:56 35.438001 -119.060271 36 491ft 5kts

Navigation Log

Ident Type
Flight plan parsing failed, navigation log unavailable